Time;durP1;ratioP1;P1;durP2;ratioP2;P2;SDS_P1;SDS_P2;PMS_P1;PMS_P2;Temp;Humidity;BMP_temperature;BMP_pressure;BME280_temperature;BME280_humidity;BME280_pressure;Samples;Min_cycle;Max_cycle;Signal;HPM_P1;HPM_P2
2023/12/30 00:01:29;;;;;;;5.53;1.33;;;;;;;7.43;100.00;100850.59;5052441;28;20086;-74
2023/12/30 00:03:55;;;;;;;5.95;1.98;;;;;;;7.39;100.00;100857.28;5051363;28;20495;-74
2023/12/30 00:06:20;;;;;;;6.15;1.50;;;;;;;7.40;100.00;100866.06;5050784;28;20457;-74
2023/12/30 00:08:46;;;;;;;6.18;1.88;;;;;;;7.37;100.00;100866.41;5052293;28;20091;-74
2023/12/30 00:11:11;;;;;;;9.13;1.83;;;;;;;7.39;100.00;100872.38;5051155;28;20025;-74
2023/12/30 00:13:37;;;;;;;6.95;1.73;;;;;;;7.37;100.00;100863.75;5052406;28;20119;-74
2023/12/30 00:16:03;;;;;;;8.98;2.45;;;;;;;7.35;100.00;100884.31;5051796;28;20029;-74
2023/12/30 00:18:29;;;;;;;7.60;1.67;;;;;;;7.33;100.00;100887.13;5052312;28;20048;-74
2023/12/30 00:20:54;;;;;;;6.55;1.60;;;;;;;7.29;100.00;100891.16;5052317;28;20430;-74
2023/12/30 00:23:20;;;;;;;9.25;1.48;;;;;;;7.34;100.00;100890.66;5052326;28;20040;-74
2023/12/30 00:25:46;;;;;;;20.83;3.08;;;;;;;7.31;100.00;100891.81;5052067;28;20486;-74
2023/12/30 00:28:12;;;;;;;4.10;1.70;;;;;;;7.23;100.00;100890.03;5051851;28;20036;-74
2023/12/30 00:30:37;;;;;;;5.55;2.15;;;;;;;7.23;100.00;100902.44;5052155;28;20487;-74
2023/12/30 00:33:03;;;;;;;9.02;2.03;;;;;;;7.16;100.00;100904.97;5051939;28;20037;-74
2023/12/30 00:35:29;;;;;;;12.48;2.92;;;;;;;7.22;100.00;100922.03;5051938;28;20037;-74
2023/12/30 00:37:54;;;;;;;8.10;2.45;;;;;;;7.19;100.00;100909.94;5051538;28;20065;-74
2023/12/30 00:40:20;;;;;;;8.05;1.98;;;;;;;7.16;100.00;100914.78;5051770;28;20052;-74
2023/12/30 00:42:45;;;;;;;11.02;3.47;;;;;;;7.11;100.00;100927.72;5050739;28;20040;-74
2023/12/30 00:45:10;;;;;;;11.95;2.92;;;;;;;7.09;100.00;100919.91;5050629;28;20112;-74
2023/12/30 00:47:36;;;;;;;5.45;1.45;;;;;;;7.08;100.00;100928.88;5051917;28;20473;-74
2023/12/30 00:50:01;;;;;;;8.82;1.70;;;;;;;7.02;100.00;100916.28;5051903;28;20040;-74
2023/12/30 00:52:26;;;;;;;8.23;2.60;;;;;;;7.02;100.00;100918.94;5051891;28;20029;-74
2023/12/30 00:54:52;;;;;;;9.63;2.58;;;;;;;6.98;100.00;100918.47;5051154;28;20029;-71
2023/12/30 00:57:17;;;;;;;5.80;2.45;;;;;;;6.98;100.00;100928.25;5049807;28;20029;-71
2023/12/30 00:59:43;;;;;;;4.57;1.95;;;;;;;6.94;100.00;100926.94;5049565;28;20032;-71
2023/12/30 01:02:08;;;;;;;11.00;2.35;;;;;;;6.86;100.00;100930.44;5048262;28;20028;-71
2023/12/30 01:04:33;;;;;;;7.93;2.00;;;;;;;6.86;100.00;100945.53;5049657;28;20495;-71
2023/12/30 01:06:59;;;;;;;9.65;3.33;;;;;;;6.84;100.00;100943.06;5049507;28;20032;-71
2023/12/30 01:09:24;;;;;;;7.60;1.73;;;;;;;6.83;100.00;100937.91;5049563;28;20098;-71
2023/12/30 01:11:49;;;;;;;8.35;2.28;;;;;;;6.86;100.00;100941.03;5049414;28;20472;-71
2023/12/30 01:14:15;;;;;;;7.70;1.55;;;;;;;6.87;100.00;100944.53;5049237;28;20111;-71
2023/12/30 01:16:40;;;;;;;8.55;3.40;;;;;;;6.88;100.00;100943.53;5048711;28;20048;-70
2023/12/30 01:19:06;;;;;;;7.13;1.30;;;;;;;6.88;100.00;100954.97;5049141;28;20484;-71
2023/12/30 01:21:31;;;;;;;7.07;2.90;;;;;;;6.88;100.00;100948.84;5047806;28;20121;-71
2023/12/30 01:23:56;;;;;;;4.97;1.98;;;;;;;6.88;100.00;100952.31;5049180;28;20529;-71
2023/12/30 01:26:23;;;;;;;12.18;1.52;;;;;;;6.85;100.00;100954.47;5049437;28;20052;-71
2023/12/30 01:28:48;;;;;;;6.32;1.70;;;;;;;6.88;100.00;100960.25;5049063;28;20383;-71
2023/12/30 01:31:16;;;;;;;10.93;2.45;;;;;;;6.86;100.00;100956.13;5049164;28;20036;-71
2023/12/30 01:33:41;;;;;;;4.38;2.13;;;;;;;6.85;100.00;100973.84;5047785;28;20039;-71
2023/12/30 01:36:07;;;;;;;8.15;2.35;;;;;;;6.84;100.00;100971.38;5049090;28;20025;-71
2023/12/30 01:38:33;;;;;;;8.20;2.17;;;;;;;6.80;100.00;100962.94;5048880;28;20519;-71
2023/12/30 01:40:59;;;;;;;6.82;1.88;;;;;;;6.83;100.00;100959.94;5049003;28;20480;-71
2023/12/30 01:43:26;;;;;;;4.47;1.83;;;;;;;6.76;100.00;100949.19;5048577;28;20032;-71
2023/12/30 01:46:01;;;;;;;6.50;2.03;;;;;;;6.83;100.00;100967.06;5047555;28;20573;-71
2023/12/30 01:48:28;;;;;;;9.52;2.35;;;;;;;6.78;100.00;100962.25;5048926;28;20033;-70
2023/12/30 01:50:57;;;;;;;9.00;2.22;;;;;;;6.80;100.00;100968.22;5048866;28;20033;-71
2023/12/30 01:53:24;;;;;;;11.02;2.00;;;;;;;6.80;100.00;100971.72;5048854;28;20043;-70
2023/12/30 01:55:50;;;;;;;7.18;1.30;;;;;;;6.80;100.00;100976.19;5047667;28;20120;-71
2023/12/30 01:58:17;;;;;;;7.75;2.47;;;;;;;6.79;100.00;100975.38;5047531;28;21036;-71
2023/12/30 02:00:46;;;;;;;11.23;2.08;;;;;;;6.76;100.00;100973.06;5048778;28;20392;-71
2023/12/30 02:03:11;;;;;;;6.43;1.60;;;;;;;6.75;100.00;100989.94;5048835;28;20036;-71
2023/12/30 02:05:38;;;;;;;10.02;1.65;;;;;;;6.72;100.00;100992.09;5048705;28;20472;-71
2023/12/30 02:08:03;;;;;;;9.88;3.13;;;;;;;6.67;100.00;100994.44;5048881;28;20029;-70
2023/12/30 02:10:29;;;;;;;9.48;1.88;;;;;;;6.72;100.00;100998.22;5048647;28;20036;-71
2023/12/30 02:12:54;;;;;;;9.35;1.60;;;;;;;6.72;100.00;101005.34;5048700;28;20025;-71
2023/12/30 02:15:24;;;;;;;9.68;2.90;;;;;;;6.68;100.00;101006.69;5047407;28;20044;-71
2023/12/30 02:17:51;;;;;;;6.85;1.33;;;;;;;6.65;100.00;101007.84;5048725;28;20052;-71
2023/12/30 02:20:17;;;;;;;7.43;1.70;;;;;;;6.58;100.00;100999.75;5048557;28;20041;-70
2023/12/30 02:22:45;;;;;;;9.63;1.98;;;;;;;6.59;100.00;101004.03;5047180;28;20029;-71
2023/12/30 02:25:11;;;;;;;7.20;1.90;;;;;;;6.58;100.00;101002.41;5048528;28;20029;-71
2023/12/30 02:27:36;;;;;;;4.63;1.38;;;;;;;6.57;100.00;101006.03;5048490;28;20105;-71
2023/12/30 02:30:02;;;;;;;6.93;2.42;;;;;;;6.61;100.00;101011.00;5051010;28;20044;-71
2023/12/30 02:32:27;;;;;;;6.20;1.80;;;;;;;6.57;100.00;101005.19;5051178;28;20033;-71
2023/12/30 02:34:53;;;;;;;3.30;1.20;;;;;;;6.61;100.00;101017.13;5052315;28;20040;-71
2023/12/30 02:37:18;;;;;;;13.70;2.80;;;;;;;6.61;100.00;101008.38;5052445;28;20116;-71
2023/12/30 02:39:44;;;;;;;3.55;1.65;;;;;;;6.63;100.00;101027.56;5050696;28;20061;-71
2023/12/30 02:42:09;;;;;;;7.38;2.88;;;;;;;6.66;100.00;101030.72;5051003;28;20036;-71
2023/12/30 02:44:34;;;;;;;6.75;1.60;;;;;;;6.67;100.00;101026.22;5052201;28;20561;-71
2023/12/30 02:47:00;;;;;;;5.65;1.60;;;;;;;6.67;100.00;101021.75;5052282;28;20033;-71
2023/12/30 02:49:27;;;;;;;6.60;1.27;;;;;;;6.65;100.00;101022.91;5050768;28;20361;-71
2023/12/30 02:51:53;;;;;;;17.08;2.97;;;;;;;6.51;100.00;100997.94;5051058;28;20033;-71
2023/12/30 02:54:19;;;;;;;8.02;2.05;;;;;;;6.59;100.00;101011.16;5052039;28;20122;-71
2023/12/30 02:56:44;;;;;;;7.07;2.22;;;;;;;6.56;100.00;101014.97;5050878;28;20488;-71
2023/12/30 02:59:10;;;;;;;4.07;1.80;;;;;;;6.58;100.00;101018.28;5052005;28;20116;-71
2023/12/30 03:01:37;;;;;;;6.68;2.75;;;;;;;6.56;100.00;101032.69;5050703;28;20032;-71
2023/12/30 03:04:03;;;;;;;13.40;2.88;;;;;;;6.56;100.00;101028.22;5051941;28;20040;-71
2023/12/30 03:06:28;;;;;;;8.73;2.67;;;;;;;6.58;100.00;101036.84;5051851;28;20097;-71
2023/12/30 03:08:54;;;;;;;10.18;2.92;;;;;;;6.59;100.00;101025.25;5051713;28;20040;-71
2023/12/30 03:11:19;;;;;;;10.50;3.00;;;;;;;6.59;100.00;101019.94;5051746;28;20062;-71
2023/12/30 03:13:45;;;;;;;12.02;2.63;;;;;;;6.61;100.00;101019.78;5051621;28;20055;-71
2023/12/30 03:16:11;;;;;;;11.98;4.60;;;;;;;6.55;100.00;101020.47;5051665;28;20037;-71
2023/12/30 03:18:37;;;;;;;11.38;3.15;;;;;;;6.61;100.00;101033.03;5051544;28;20036;-71
2023/12/30 03:21:07;;;;;;;6.30;2.80;;;;;;;6.57;100.00;101023.75;5051543;28;20039;-71
2023/12/30 03:23:33;;;;;;;13.00;3.08;;;;;;;6.54;100.00;101024.09;5051637;28;20037;-71
2023/12/30 03:25:58;;;;;;;10.45;3.22;;;;;;;6.51;100.00;101033.19;5051348;28;20033;-71
2023/12/30 03:28:25;;;;;;;12.15;3.72;;;;;;;6.53;100.00;101038.34;5050203;28;20039;-71
2023/12/30 03:30:51;;;;;;;8.57;2.92;;;;;;;6.50;100.00;101042.16;5033907;28;20589;-71
2023/12/30 03:33:16;;;;;;;11.13;2.75;;;;;;;6.48;100.00;101041.47;5051247;28;20102;-71
2023/12/30 03:35:41;;;;;;;9.77;2.80;;;;;;;6.46;100.00;101039.97;5051281;28;20056;-71
2023/12/30 03:38:07;;;;;;;10.57;2.65;;;;;;;6.44;100.00;101036.66;5050949;28;20052;-71
2023/12/30 03:40:32;;;;;;;12.85;2.20;;;;;;;6.40;100.00;101036.19;5050270;28;20040;-71
2023/12/30 03:42:57;;;;;;;5.95;2.30;;;;;;;6.41;100.00;101039.66;5051246;28;20049;-71
2023/12/30 03:45:23;;;;;;;4.07;1.33;;;;;;;6.37;100.00;101052.41;5051158;28;20896;-72
2023/12/30 03:47:48;;;;;;;6.63;2.75;;;;;;;6.32;100.00;101044.94;5051094;28;20029;-71
2023/12/30 03:50:13;;;;;;;4.88;1.70;;;;;;;6.29;100.00;101039.97;5050942;28;20048;-71
2023/12/30 03:52:39;;;;;;;5.35;1.92;;;;;;;6.26;100.00;101048.25;5050963;28;20025;-71
2023/12/30 03:55:04;;;;;;;5.50;1.63;;;;;;;6.25;100.00;101053.72;5049520;28;20090;-71
2023/12/30 03:57:30;;;;;;;6.97;2.47;;;;;;;6.28;100.00;101050.72;5050930;28;20041;-71
2023/12/30 03:59:55;;;;;;;5.28;1.95;;;;;;;6.29;100.00;101049.75;5050859;28;20167;-71
2023/12/30 04:02:20;;;;;;;11.00;1.83;;;;;;;6.27;100.00;101035.84;5049505;28;20142;-71
2023/12/30 04:04:46;;;;;;;7.57;2.88;;;;;;;6.32;100.00;101050.25;5049431;28;20027;-71
2023/12/30 04:07:12;;;;;;;8.52;2.10;;;;;;;6.32;100.00;101039.66;5050623;28;20036;-71
2023/12/30 04:09:37;;;;;;;6.22;2.92;;;;;;;6.32;100.00;101044.13;5050558;28;20021;-71
2023/12/30 04:12:03;;;;;;;12.75;3.00;;;;;;;6.29;100.00;101047.94;5050625;28;20131;-71
2023/12/30 04:14:28;;;;;;;13.82;3.03;;;;;;;6.27;100.00;101051.72;5050394;28;20443;-71
2023/12/30 04:16:54;;;;;;;10.18;2.08;;;;;;;6.22;100.00;101054.03;5050300;28;20116;-71
2023/12/30 04:19:19;;;;;;;11.95;2.65;;;;;;;6.15;100.00;101045.91;5050271;28;20083;-72
2023/12/30 04:21:45;;;;;;;9.02;1.70;;;;;;;6.14;100.00;101053.03;5049063;28;20029;-71
2023/12/30 04:24:10;;;;;;;14.60;2.47;;;;;;;6.10;100.00;101049.06;5048940;28;20134;-71
2023/12/30 04:26:35;;;;;;;16.20;3.65;;;;;;;6.07;100.00;101062.59;5050662;28;20032;-71
2023/12/30 04:29:01;;;;;;;12.13;3.67;;;;;;;6.02;100.00;101059.59;5050228;28;20178;-71
2023/12/30 04:31:26;;;;;;;9.13;3.05;;;;;;;6.02;100.00;101056.13;5048787;28;20118;-71
2023/12/30 04:33:51;;;;;;;13.07;1.60;;;;;;;5.98;100.00;101055.63;5050041;28;20688;-71
2023/12/30 04:36:17;;;;;;;6.90;1.88;;;;;;;5.96;100.00;101062.91;5050201;28;20048;-71
2023/12/30 04:38:42;;;;;;;6.07;1.75;;;;;;;5.92;100.00;101058.88;5049975;28;20677;-72
2023/12/30 04:41:07;;;;;;;7.05;1.60;;;;;;;5.90;100.00;101063.53;5050138;28;20158;-71
2023/12/30 04:43:33;;;;;;;8.02;1.75;;;;;;;5.85;100.00;101060.53;5050039;28;20476;-71
2023/12/30 04:45:58;;;;;;;9.38;1.55;;;;;;;5.82;100.00;101059.03;5049943;28;20029;-71
2023/12/30 04:48:23;;;;;;;12.52;1.83;;;;;;;5.76;100.00;101061.47;5049864;28;20492;-71
2023/12/30 04:50:49;;;;;;;4.53;1.90;;;;;;;5.72;100.00;101060.97;5049831;28;20037;-71
2023/12/30 04:53:14;;;;;;;6.05;1.73;;;;;;;5.73;100.00;101070.56;5049799;28;20025;-71
2023/12/30 04:55:39;;;;;;;9.00;1.83;;;;;;;5.69;100.00;101061.31;5049574;28;20029;-71
2023/12/30 04:58:05;;;;;;;14.68;2.47;;;;;;;5.68;100.00;101076.34;5049803;28;20031;-71
2023/12/30 05:00:30;;;;;;;6.50;1.42;;;;;;;5.67;100.00;101079.16;5049552;28;20029;-71
2023/12/30 05:02:56;;;;;;;13.43;2.20;;;;;;;5.66;100.00;101077.50;5049709;28;20029;-71
2023/12/30 05:05:21;;;;;;;8.73;2.45;;;;;;;5.62;100.00;101068.22;5049488;28;20035;-71
2023/12/30 05:07:47;;;;;;;16.55;2.33;;;;;;;5.68;100.00;101081.63;5048445;28;20112;-72
2023/12/30 05:10:12;;;;;;;14.48;3.28;;;;;;;5.75;100.00;101076.53;5048173;28;20510;-71
2023/12/30 05:12:37;;;;;;;8.57;1.80;;;;;;;5.77;100.00;101073.75;5049414;28;20115;-72
2023/12/30 05:15:03;;;;;;;7.40;1.45;;;;;;;5.76;100.00;101078.19;5049268;28;20033;-72
2023/12/30 05:17:31;;;;;;;7.07;1.63;;;;;;;5.75;100.00;101083.66;5049280;28;20484;-71
2023/12/30 05:19:57;;;;;;;8.48;2.40;;;;;;;5.73;100.00;101089.09;5049279;28;20388;-71
2023/12/30 05:22:22;;;;;;;7.78;3.20;;;;;;;5.74;100.00;101090.78;5049260;28;20035;-71
2023/12/30 05:24:48;;;;;;;13.15;3.47;;;;;;;5.74;100.00;101093.41;5049326;28;20025;-71
2023/12/30 05:27:13;;;;;;;10.20;1.92;;;;;;;5.77;100.00;101097.56;5049052;28;20025;-71
2023/12/30 05:29:38;;;;;;;10.73;3.15;;;;;;;5.78;100.00;101105.31;5049193;28;20025;-71
2023/12/30 05:32:05;;;;;;;4.25;1.27;;;;;;;5.76;100.00;101099.34;5049165;28;20071;-71
2023/12/30 05:34:30;;;;;;;5.55;2.05;;;;;;;5.75;100.00;101095.06;5049149;28;20995;-71
2023/12/30 05:36:56;;;;;;;5.65;1.50;;;;;;;5.82;100.00;101103.22;5048979;28;20040;-71
2023/12/30 05:39:21;;;;;;;6.30;2.30;;;;;;;5.81;100.00;101098.88;5048957;28;20056;-71
2023/12/30 05:41:46;;;;;;;7.45;1.50;;;;;;;5.78;100.00;101107.16;5047519;28;20069;-72
2023/12/30 05:44:12;;;;;;;9.55;1.65;;;;;;;5.77;100.00;101102.84;5048979;28;20027;-71
2023/12/30 05:46:37;;;;;;;10.90;3.42;;;;;;;5.72;100.00;101104.16;5048891;28;20123;-71
2023/12/30 05:49:02;;;;;;;15.07;2.17;;;;;;;5.67;100.00;101103.78;5048805;28;20108;-71
2023/12/30 05:51:28;;;;;;;5.07;1.35;;;;;;;5.68;100.00;101102.78;5047640;28;20082;-71
2023/12/30 05:53:53;;;;;;;15.25;2.53;;;;;;;5.68;100.00;101104.63;5031024;28;20082;-71
2023/12/30 05:56:23;;;;;;;10.82;2.22;;;;;;;5.66;100.00;101117.19;5048947;28;20944;-71
2023/12/30 05:58:49;;;;;;;16.73;2.05;;;;;;;5.63;100.00;101117.50;5049061;28;20058;-71
2023/12/30 06:01:15;;;;;;;11.55;1.75;;;;;;;5.61;100.00;101124.78;5048570;28;20044;-71
2023/12/30 06:03:40;;;;;;;11.25;2.17;;;;;;;5.61;100.00;101119.47;5049137;28;20472;-71
2023/12/30 06:06:05;;;;;;;8.32;1.75;;;;;;;5.58;100.00;101112.69;5052843;28;20051;-71
2023/12/30 06:08:32;;;;;;;14.82;2.17;;;;;;;5.59;100.00;101116.97;5052828;28;20055;-71
2023/12/30 06:10:58;;;;;;;9.52;2.22;;;;;;;5.57;100.00;101124.25;5052892;28;20071;-71
2023/12/30 06:13:23;;;;;;;14.18;2.92;;;;;;;5.56;100.00;101129.72;5052744;28;20472;-71
2023/12/30 06:15:50;;;;;;;5.88;2.65;;;;;;;5.51;100.00;101124.88;5052627;28;20028;-71
2023/12/30 06:18:16;;;;;;;9.77;1.60;;;;;;;5.53;100.00;101132.63;5052797;28;20057;-71
2023/12/30 06:20:46;;;;;;;10.95;2.70;;;;;;;5.52;100.00;101131.81;5052481;28;20059;-71
2023/12/30 06:23:12;;;;;;;9.38;3.25;;;;;;;5.52;100.00;101136.28;5052500;28;20132;-71
2023/12/30 06:25:38;;;;;;;6.78;1.95;;;;;;;5.51;100.00;101139.94;5052560;28;20033;-71
2023/12/30 06:28:04;;;;;;;12.88;2.38;;;;;;;5.49;100.00;101138.25;5052630;28;20074;-71
2023/12/30 06:30:30;;;;;;;22.08;3.15;;;;;;;5.45;100.00;101133.44;5052478;28;20036;-71
2023/12/30 06:32:55;;;;;;;10.32;2.03;;;;;;;5.47;100.00;101147.31;5052427;28;20090;-71
2023/12/30 06:35:20;;;;;;;8.38;2.55;;;;;;;5.46;100.00;101141.22;5052319;28;20361;-71
2023/12/30 06:37:47;;;;;;;11.23;2.50;;;;;;;5.42;100.00;101147.81;5052135;28;20044;-71
2023/12/30 06:40:13;;;;;;;7.05;3.20;;;;;;;5.41;100.00;101146.13;5050817;28;20470;-71
2023/12/30 06:42:38;;;;;;;6.07;1.52;;;;;;;5.39;100.00;101142.81;5052217;28;20033;-71
2023/12/30 06:45:04;;;;;;;13.02;2.50;;;;;;;5.40;100.00;101144.50;5051083;28;20040;-71
2023/12/30 06:47:30;;;;;;;5.72;1.73;;;;;;;5.43;100.00;101151.28;5052139;28;20036;-71
2023/12/30 06:49:55;;;;;;;7.43;2.60;;;;;;;5.42;100.00;101152.25;5052118;28;20028;-71
2023/12/30 06:52:20;;;;;;;13.40;3.63;;;;;;;5.34;100.00;101136.34;5051963;28;20071;-71
2023/12/30 06:54:46;;;;;;;32.58;3.83;;;;;;;5.36;100.00;101137.00;5051920;28;20427;-71
2023/12/30 06:57:11;;;;;;;11.07;2.35;;;;;;;5.38;100.00;101151.75;5051738;28;20036;-71
2023/12/30 06:59:37;;;;;;;13.80;2.70;;;;;;;5.36;100.00;101150.25;5051865;28;20028;-71
2023/12/30 07:02:02;;;;;;;13.55;2.60;;;;;;;5.35;100.00;101144.13;5051759;28;20032;-71
2023/12/30 07:04:28;;;;;;;5.25;1.80;;;;;;;5.30;100.00;101146.41;5051831;28;20009;-71
2023/12/30 07:06:53;;;;;;;6.93;2.08;;;;;;;5.34;100.00;101154.84;5051781;28;20104;-71
2023/12/30 07:09:19;;;;;;;13.90;2.30;;;;;;;5.32;100.00;101146.22;5051736;28;20136;-71
2023/12/30 07:11:45;;;;;;;2.92;1.63;;;;;;;5.31;100.00;101152.53;5051660;28;20040;-71
2023/12/30 07:14:10;;;;;;;10.88;2.47;;;;;;;5.30;100.00;101159.63;5050521;28;20033;-71
2023/12/30 07:16:36;;;;;;;5.10;2.13;;;;;;;5.29;100.00;101157.94;5049388;28;20041;-71
2023/12/30 07:19:01;;;;;;;11.90;2.75;;;;;;;5.34;100.00;101160.13;5050165;28;20116;-71
2023/12/30 07:21:26;;;;;;;7.85;1.67;;;;;;;5.35;100.00;101161.81;5051428;28;20032;-71
2023/12/30 07:23:52;;;;;;;10.43;2.00;;;;;;;5.36;100.00;101159.00;5050083;28;20079;-71
2023/12/30 07:26:17;;;;;;;9.38;2.10;;;;;;;5.38;100.00;101154.38;5051466;28;20076;-71
2023/12/30 07:28:43;;;;;;;10.45;3.95;;;;;;;5.40;100.00;101155.06;5050825;28;20040;-71
2023/12/30 07:31:08;;;;;;;17.52;3.28;;;;;;;5.40;100.00;101154.25;5048988;28;20033;-71
2023/12/30 07:33:35;;;;;;;11.82;1.80;;;;;;;5.41;100.00;101159.38;5049042;28;20025;-71
2023/12/30 07:36:03;;;;;;;9.90;2.17;;;;;;;5.39;100.00;101157.84;5051044;28;20116;-71
2023/12/30 07:38:30;;;;;;;8.75;3.45;;;;;;;5.41;100.00;101171.75;5049758;28;20083;-71
2023/12/30 07:40:56;;;;;;;29.98;5.57;;;;;;;5.38;100.00;101175.56;5050958;28;20029;-71
2023/12/30 07:43:21;;;;;;;7.25;1.70;;;;;;;5.32;100.00;101162.09;5049360;28;20732;-71
2023/12/30 07:45:46;;;;;;;15.35;2.65;;;;;;;5.28;100.00;101165.06;5050076;28;20040;-71
2023/12/30 07:48:12;;;;;;;6.68;1.95;;;;;;;5.40;100.00;101176.22;5050234;28;20476;-71
2023/12/30 07:50:37;;;;;;;13.57;2.95;;;;;;;5.39;100.00;101185.13;5050077;28;20033;-71
2023/12/30 07:53:03;;;;;;;10.90;1.98;;;;;;;5.39;100.00;101186.94;5050322;28;20060;-72
2023/12/30 07:55:29;;;;;;;10.20;1.70;;;;;;;5.38;100.00;101188.78;5050393;28;20408;-70
2023/12/30 07:57:54;;;;;;;9.85;1.90;;;;;;;5.37;100.00;101189.78;5050595;28;20036;-70
2023/12/30 08:00:20;;;;;;;9.57;1.42;;;;;;;5.40;100.00;101194.75;5050494;28;20024;-71
2023/12/30 08:02:45;;;;;;;12.60;2.72;;;;;;;5.43;100.00;101197.06;5050220;28;20074;-70
2023/12/30 08:05:11;;;;;;;9.15;2.60;;;;;;;5.42;100.00;101192.78;5049332;28;20025;-70
2023/12/30 08:07:36;;;;;;;13.27;1.95;;;;;;;5.47;100.00;101201.06;5049373;28;20025;-70
2023/12/30 08:10:01;;;;;;;10.68;2.72;;;;;;;5.46;100.00;101204.69;5050449;28;20484;-70
2023/12/30 08:12:27;;;;;;;10.07;2.33;;;;;;;5.47;100.00;101209.00;5050457;28;20103;-70
2023/12/30 08:14:52;;;;;;;7.88;2.65;;;;;;;5.49;100.00;101212.31;5050241;28;20032;-70
2023/12/30 08:17:17;;;;;;;14.45;2.72;;;;;;;5.58;100.00;101215.03;5050400;28;20040;-70
2023/12/30 08:19:43;;;;;;;13.77;2.67;;;;;;;5.63;100.00;101215.38;5050257;28;20094;-70
2023/12/30 08:22:08;;;;;;;12.00;1.80;;;;;;;5.68;100.00;101213.09;5048833;28;20476;-70
2023/12/30 08:24:33;;;;;;;12.65;2.72;;;;;;;5.77;100.00;101206.06;5048940;28;20625;-69
2023/12/30 08:26:59;;;;;;;5.60;2.55;;;;;;;5.83;100.00;101214.19;5049443;28;20033;-70
2023/12/30 08:29:24;;;;;;;11.18;3.15;;;;;;;5.82;100.00;101206.44;5050017;28;20032;-69
2023/12/30 08:31:49;;;;;;;9.50;2.13;;;;;;;5.92;100.00;101215.06;5050058;28;20212;-69
2023/12/30 08:34:15;;;;;;;14.23;4.50;;;;;;;5.96;100.00;101221.75;5049821;28;20095;-69
2023/12/30 08:36:42;;;;;;;11.20;2.60;;;;;;;6.00;100.00;101214.31;5050149;28;20033;-70
2023/12/30 08:39:08;;;;;;;10.68;1.70;;;;;;;6.05;100.00;101218.16;5049808;28;20067;-70
2023/12/30 08:41:33;;;;;;;13.20;3.40;;;;;;;6.09;100.00;101216.84;5049804;28;20037;-70
2023/12/30 08:43:59;;;;;;;18.05;4.00;;;;;;;6.15;100.00;101215.38;5049804;28;20086;-70
2023/12/30 08:46:25;;;;;;;17.40;1.70;;;;;;;6.20;100.00;101212.25;5049735;28;20115;-70
2023/12/30 08:48:50;;;;;;;7.88;1.88;;;;;;;6.20;100.00;101207.78;5050135;28;20452;-70
2023/12/30 08:51:16;;;;;;;8.02;2.80;;;;;;;6.26;100.00;101215.13;5049618;28;20948;-70
2023/12/30 08:53:41;;;;;;;9.52;2.45;;;;;;;6.29;100.00;101211.31;5049582;28;20028;-69
2023/12/30 08:56:07;;;;;;;14.88;2.35;;;;;;;6.31;100.00;101223.41;5049333;28;20040;-70
2023/12/30 08:58:32;;;;;;;10.80;2.42;;;;;;;6.34;100.00;101215.16;5049337;28;20491;-70
2023/12/30 09:00:57;;;;;;;9.57;1.98;;;;;;;6.38;100.00;101217.47;5049514;28;20384;-70
2023/12/30 09:03:23;;;;;;;12.35;2.95;;;;;;;6.43;100.00;101228.41;5048722;28;20964;-70
2023/12/30 09:05:48;;;;;;;13.13;2.50;;;;;;;6.46;100.00;101218.31;5047558;28;20051;-72
2023/12/30 09:08:14;;;;;;;8.93;2.53;;;;;;;6.50;100.00;101224.16;5047145;28;20033;-67
2023/12/30 09:10:39;;;;;;;10.23;2.25;;;;;;;6.54;100.00;101226.28;5047333;28;20059;-70
2023/12/30 09:13:04;;;;;;;6.45;2.53;;;;;;;6.59;100.00;101224.00;5047013;28;20556;-70
2023/12/30 09:15:30;;;;;;;11.85;2.00;;;;;;;6.63;100.00;101229.81;5045142;28;20045;-70
2023/12/30 09:17:57;;;;;;;11.02;2.55;;;;;;;6.69;100.00;101244.25;5046571;28;20381;-70
2023/12/30 09:20:24;;;;;;;12.13;4.03;;;;;;;6.71;100.00;101240.44;5046408;28;20036;-70
2023/12/30 09:22:49;;;;;;;10.85;2.80;;;;;;;6.74;100.00;101236.63;5044858;28;20060;-70
2023/12/30 09:25:15;;;;;;;9.55;2.58;;;;;;;6.79;100.00;101253.72;5045956;28;20461;-70
2023/12/30 09:27:40;;;;;;;10.65;3.25;;;;;;;6.82;100.00;101254.38;5046589;28;20037;-70
2023/12/30 09:30:06;;;;;;;11.25;2.30;;;;;;;6.85;100.00;101251.41;5046446;28;20127;-70
2023/12/30 09:32:31;;;;;;;16.67;3.70;;;;;;;6.88;100.00;101251.91;5046704;28;20025;-70
2023/12/30 09:34:57;;;;;;;13.43;3.53;;;;;;;6.81;100.00;101237.63;5046229;28;20036;-70
2023/12/30 09:37:22;;;;;;;11.18;2.40;;;;;;;6.85;100.00;101244.28;5046626;28;20079;-70
2023/12/30 09:39:48;;;;;;;10.77;3.50;;;;;;;6.94;100.00;101253.06;5046322;28;20057;-70
2023/12/30 09:42:13;;;;;;;15.07;3.80;;;;;;;6.98;100.00;101260.53;5047106;28;20025;-70
2023/12/30 09:44:40;;;;;;;14.82;2.80;;;;;;;6.99;100.00;101258.72;5046454;28;20032;-70
2023/12/30 09:47:11;;;;;;;9.48;3.60;;;;;;;7.05;100.00;101265.19;5046970;28;20114;-70
2023/12/30 09:49:37;;;;;;;13.35;4.80;;;;;;;7.09;100.00;101254.09;5046985;28;20475;-70
2023/12/30 09:52:04;;;;;;;12.88;2.30;;;;;;;7.15;100.00;101260.56;5046846;28;20045;-71
2023/12/30 09:54:29;;;;;;;8.07;2.65;;;;;;;7.19;100.00;101264.56;5045164;28;20197;-70
2023/12/30 09:56:56;;;;;;;10.82;3.35;;;;;;;7.24;100.00;101268.38;5045187;28;20108;-71
2023/12/30 09:59:23;;;;;;;11.73;3.20;;;;;;;7.29;100.00;101265.22;5046377;28;20028;-71
2023/12/30 10:01:48;;;;;;;6.65;2.17;;;;;;;7.33;100.00;101274.50;5046664;28;20025;-71
2023/12/30 10:04:14;;;;;;;15.63;3.45;;;;;;;7.31;100.00;101255.28;5046315;28;20047;-71
2023/12/30 10:06:41;;;;;;;14.98;3.83;;;;;;;7.39;100.00;101273.03;5028750;28;20048;-71
2023/12/30 10:09:07;;;;;;;13.40;4.28;;;;;;;7.43;100.00;101261.06;5045927;28;20028;-70
2023/12/30 10:11:32;;;;;;;16.98;3.03;;;;;;;7.42;100.00;101265.56;5046540;28;20036;-70
2023/12/30 10:13:57;;;;;;;15.70;3.90;;;;;;;7.43;100.00;101272.50;5044994;28;20476;-70
2023/12/30 10:16:24;;;;;;;9.02;3.50;;;;;;;7.43;100.00;101272.50;5045162;28;20487;-71
2023/12/30 10:18:49;;;;;;;13.70;3.03;;;;;;;7.40;100.00;101258.75;5046599;28;20032;-70
2023/12/30 10:21:16;;;;;;;9.95;2.65;;;;;;;7.43;100.00;101269.03;5044998;28;20037;-70
2023/12/30 10:23:42;;;;;;;15.02;3.30;;;;;;;7.45;100.00;101267.06;5046419;28;20039;-69
2023/12/30 10:26:08;;;;;;;13.65;4.20;;;;;;;7.47;100.00;101265.91;5046616;28;20047;-70
2023/12/30 10:28:34;;;;;;;13.15;4.07;;;;;;;7.51;100.00;101268.22;5046551;28;20041;-70
2023/12/30 10:31:05;;;;;;;11.77;3.63;;;;;;;7.57;100.00;101275.50;5044991;28;20491;-70
2023/12/30 10:33:31;;;;;;;9.70;3.95;;;;;;;7.59;100.00;101269.03;5045998;28;20495;-70
2023/12/30 10:35:56;;;;;;;11.15;3.53;;;;;;;7.72;100.00;101284.47;5045030;28;20082;-69
2023/12/30 10:38:23;;;;;;;9.70;3.47;;;;;;;7.78;100.00;101282.94;5046146;28;20423;-70
2023/12/30 10:40:50;;;;;;;18.33;5.70;;;;;;;7.83;100.00;101281.47;5046188;28;20029;-69
2023/12/30 10:43:16;;;;;;;11.50;5.38;;;;;;;7.87;100.00;101281.97;5045984;28;20025;-70
2023/12/30 10:45:42;;;;;;;9.35;3.67;;;;;;;7.94;100.00;101284.75;5045825;28;20029;-70
2023/12/30 10:48:07;;;;;;;11.77;3.92;;;;;;;7.98;100.00;101275.47;5046523;28;20489;-70
2023/12/30 10:50:37;;;;;;;20.10;4.85;;;;;;;8.02;100.00;101277.63;5048826;28;20163;-70
2023/12/30 10:53:08;;;;;;;14.70;4.05;;;;;;;7.98;100.00;101268.31;5050079;28;20052;-69
2023/12/30 10:55:35;;;;;;;14.82;4.97;;;;;;;8.11;100.00;101273.13;5049869;28;20041;-70
2023/12/30 10:58:11;;;;;;;11.73;4.10;;;;;;;8.15;100.00;101266.47;5049772;28;20138;-69
2023/12/30 11:00:41;;;;;;;13.60;3.13;;;;;;;8.20;100.00;101268.59;5049860;28;20605;-69
2023/12/30 11:03:07;;;;;;;18.67;6.38;;;;;;;8.24;100.00;101260.13;5049609;28;20464;-70
2023/12/30 11:05:45;;;;;;;10.00;3.83;;;;;;;8.30;100.00;101262.06;5049724;28;20091;-70
2023/12/30 11:08:11;;;;;;;13.88;3.28;;;;;;;8.34;100.00;101257.28;5049235;28;20397;-70
2023/12/30 11:10:37;;;;;;;11.60;3.58;;;;;;;8.37;100.00;101250.78;5049219;28;20039;-70
2023/12/30 11:13:05;;;;;;;16.42;6.13;;;;;;;8.34;100.00;101236.00;5047678;28;20583;-72
2023/12/30 11:15:31;;;;;;;15.10;5.15;;;;;;;8.42;100.00;101233.34;5049199;28;20025;-69